< Cyclone 198406 1984 Season Cyclone 198409 >
Cyclone 198408 (TIM)
General InformationTrack Information on Google MapsList of All Images || ResourceGoogle EarthGE AnimationAtom FeedGeoJSON
Detalied Best Track (Time Zone = UTC)
Year Month Day Hour Lat. Long. Pressure (hPa) Wind (kt) Class Image Chart
1984 1 2 06 -13.4 107.8 1005 0 0 Image --
1984 1 2 12 -13.8 108.3 1005 0 0 Image --
1984 1 2 18 -14.1 108.4 1004 0 0 Image --
1984 1 3 00 -14.2 108.1 1004 0 0 Image --
1984 1 3 06 -13.9 107.5 1003 0 0 Image --
1984 1 3 12 -13.7 107.3 1001 0 0 Image --
1984 1 3 18 -13.5 107.1 1000 0 0 Image --
1984 1 4 00 -13.2 107.0 999 0 0 Image --
1984 1 4 06 -12.9 106.9 999 0 0 Image --
1984 1 4 12 -12.7 106.7 999 0 0 Image --
1984 1 4 16 -12.7 106.2 996 0 0 Image --
1984 1 4 18 -12.5 105.9 996 0 0 Image --
1984 1 5 00 -12.3 105.6 996 0 0 Image --
1984 1 5 06 -11.5 104.6 992 0 0 Image --
1984 1 5 12 -11.3 103.7 985 0 0 Image --
1984 1 5 18 -11.2 103.3 982 0 0 Image --
1984 1 6 00 -10.7 102.4 982 0 0 Image --
1984 1 6 06 -11.6 102.0 980 0 0 Image --
1984 1 6 12 -12.2 101.9 980 0 0 Image --
1984 1 6 18 -12.9 102.2 985 0 0 Image --
1984 1 7 00 -13.8 102.9 988 0 0 Image --
1984 1 7 06 -14.9 103.0 990 0 0 Image --
1984 1 7 12 -15.5 102.9 985 0 0 Image --
1984 1 7 18 -16.2 102.9 984 0 0 Image --
1984 1 8 00 -16.8 103.1 982 0 0 Image --
1984 1 8 06 -17.7 103.1 984 0 0 Image --
1984 1 8 12 -18.4 103.3 984 0 0 Image --
1984 1 8 18 -18.9 104.1 988 0 0 Image --
1984 1 9 00 -19.0 104.0 990 0 0 Image --
1984 1 9 06 -19.3 103.6 990 0 0 Image --
1984 1 9 12 -19.7 103.6 996 0 0 Image --
1984 1 9 18 -19.8 103.7 996 0 0 Image --
1984 1 10 00 -20.0 104.0 1000 0 0 Image --
1984 1 10 06 -20.2 104.0 1000 0 0 Image --
< Cyclone 198406 1984 Season Cyclone 198409 >

Help